Terminal Aerodrome Forecast
Issued by NWS

Home | Current Version | Previous Version | Graphics & Text | Print | Product List | Glossary Off
Versions: 1 2 3 4 5 6 7 8 9 10 11 12 13

000
FTUS43 KDDC 221120
TAFGCK
TAF
KGCK 221120Z 2212/2312 34009KT P6SM BKN090
     FM221600 36012KT P6SM SCT060
     FM230100 01008KT P6SM FEW200=

USA.gov is the U.S. government's official web portal to all federal, state and local government web resources and services.